sensor_id;sensor_type;location;lat;lon;timestamp;P1;durP1;ratioP1;P2;durP2;ratioP2
68074;SDS011;54864;52.002;5.468;2022-10-16T00:00:53;10.00;;;4.22;;
68074;SDS011;54864;52.002;5.468;2022-10-16T00:01:55;12.82;;;3.63;;
68074;SDS011;54864;52.002;5.468;2022-10-16T00:02:55;8.88;;;4.05;;
68074;SDS011;54864;52.002;5.468;2022-10-16T00:03:58;14.32;;;4.53;;
68074;SDS011;54864;52.002;5.468;2022-10-16T00:05:00;8.02;;;4.07;;
68074;SDS011;54864;52.002;5.468;2022-10-16T00:06:02;8.40;;;4.32;;
68074;SDS011;54864;52.002;5.468;2022-10-16T00:07:04;9.13;;;3.88;;
68074;SDS011;54864;52.002;5.468;2022-10-16T00:08:06;8.52;;;4.05;;
68074;SDS011;54864;52.002;5.468;2022-10-16T00:09:07;7.70;;;4.25;;
68074;SDS011;54864;52.002;5.468;2022-10-16T00:10:09;9.23;;;4.20;;
68074;SDS011;54864;52.002;5.468;2022-10-16T00:11:11;11.80;;;4.13;;
68074;SDS011;54864;52.002;5.468;2022-10-16T00:12:16;9.75;;;4.40;;
68074;SDS011;54864;52.002;5.468;2022-10-16T00:13:17;12.18;;;4.38;;
68074;SDS011;54864;52.002;5.468;2022-10-16T00:14:20;11.55;;;4.25;;
68074;SDS011;54864;52.002;5.468;2022-10-16T00:15:22;9.20;;;3.93;;
68074;SDS011;54864;52.002;5.468;2022-10-16T00:16:24;10.83;;;4.43;;
68074;SDS011;54864;52.002;5.468;2022-10-16T00:17:26;7.93;;;4.03;;
68074;SDS011;54864;52.002;5.468;2022-10-16T00:18:28;11.93;;;4.57;;
68074;SDS011;54864;52.002;5.468;2022-10-16T00:19:29;7.70;;;3.70;;
68074;SDS011;54864;52.002;5.468;2022-10-16T00:20:33;7.10;;;4.05;;
68074;SDS011;54864;52.002;5.468;2022-10-16T00:21:34;11.50;;;4.38;;
68074;SDS011;54864;52.002;5.468;2022-10-16T00:22:36;10.20;;;4.82;;
68074;SDS011;54864;52.002;5.468;2022-10-16T00:23:37;8.73;;;4.27;;
68074;SDS011;54864;52.002;5.468;2022-10-16T00:24:39;7.75;;;4.25;;
68074;SDS011;54864;52.002;5.468;2022-10-16T00:25:40;11.05;;;4.45;;
68074;SDS011;54864;52.002;5.468;2022-10-16T00:26:42;9.80;;;4.30;;
68074;SDS011;54864;52.002;5.468;2022-10-16T00:27:43;9.70;;;3.80;;
68074;SDS011;54864;52.002;5.468;2022-10-16T00:28:45;9.73;;;4.25;;
68074;SDS011;54864;52.002;5.468;2022-10-16T00:29:49;9.45;;;4.40;;
68074;SDS011;54864;52.002;5.468;2022-10-16T00:30:52;5.72;;;3.70;;
68074;SDS011;54864;52.002;5.468;2022-10-16T00:31:54;10.95;;;4.82;;
68074;SDS011;54864;52.002;5.468;2022-10-16T00:32:55;8.48;;;4.03;;
68074;SDS011;54864;52.002;5.468;2022-10-16T00:33:56;11.90;;;4.05;;
68074;SDS011;54864;52.002;5.468;2022-10-16T00:34:58;7.28;;;3.38;;
68074;SDS011;54864;52.002;5.468;2022-10-16T00:35:59;10.17;;;3.90;;
68074;SDS011;54864;52.002;5.468;2022-10-16T00:37:02;8.00;;;3.80;;
68074;SDS011;54864;52.002;5.468;2022-10-16T00:38:03;8.32;;;3.80;;
68074;SDS011;54864;52.002;5.468;2022-10-16T00:39:05;7.28;;;4.20;;
68074;SDS011;54864;52.002;5.468;2022-10-16T00:40:06;7.50;;;4.15;;
68074;SDS011;54864;52.002;5.468;2022-10-16T00:41:10;7.53;;;4.35;;
68074;SDS011;54864;52.002;5.468;2022-10-16T00:42:13;7.90;;;4.30;;
68074;SDS011;54864;52.002;5.468;2022-10-16T00:43:32;9.18;;;4.05;;
68074;SDS011;54864;52.002;5.468;2022-10-16T00:44:44;9.95;;;3.67;;
68074;SDS011;54864;52.002;5.468;2022-10-16T00:45:49;11.15;;;4.03;;
68074;SDS011;54864;52.002;5.468;2022-10-16T00:46:52;8.07;;;4.07;;
68074;SDS011;54864;52.002;5.468;2022-10-16T00:47:54;9.95;;;3.88;;
68074;SDS011;54864;52.002;5.468;2022-10-16T00:48:59;8.65;;;3.97;;
68074;SDS011;54864;52.002;5.468;2022-10-16T00:50:07;12.38;;;4.30;;
68074;SDS011;54864;52.002;5.468;2022-10-16T00:51:12;12.77;;;4.90;;
68074;SDS011;54864;52.002;5.468;2022-10-16T00:52:15;8.55;;;3.65;;
68074;SDS011;54864;52.002;5.468;2022-10-16T00:53:17;12.18;;;4.10;;
68074;SDS011;54864;52.002;5.468;2022-10-16T00:54:20;7.85;;;3.90;;
68074;SDS011;54864;52.002;5.468;2022-10-16T00:55:24;10.00;;;3.75;;
68074;SDS011;54864;52.002;5.468;2022-10-16T00:56:27;7.00;;;4.25;;
68074;SDS011;54864;52.002;5.468;2022-10-16T00:57:28;9.02;;;4.03;;
68074;SDS011;54864;52.002;5.468;2022-10-16T00:58:31;8.93;;;3.80;;
68074;SDS011;54864;52.002;5.468;2022-10-16T00:59:33;10.05;;;3.97;;
68074;SDS011;54864;52.002;5.468;2022-10-16T01:00:37;9.27;;;4.15;;
68074;SDS011;54864;52.002;5.468;2022-10-16T01:01:39;7.57;;;3.88;;
68074;SDS011;54864;52.002;5.468;2022-10-16T01:02:42;9.73;;;4.90;;
68074;SDS011;54864;52.002;5.468;2022-10-16T01:03:42;9.82;;;3.90;;
68074;SDS011;54864;52.002;5.468;2022-10-16T01:04:46;12.02;;;4.50;;
68074;SDS011;54864;52.002;5.468;2022-10-16T01:05:54;8.50;;;3.92;;
68074;SDS011;54864;52.002;5.468;2022-10-16T01:07:16;9.45;;;4.35;;
68074;SDS011;54864;52.002;5.468;2022-10-16T01:08:32;9.60;;;4.22;;
68074;SDS011;54864;52.002;5.468;2022-10-16T01:09:47;7.55;;;4.15;;
68074;SDS011;54864;52.002;5.468;2022-10-16T01:11:05;9.93;;;4.03;;
68074;SDS011;54864;52.002;5.468;2022-10-16T01:12:19;8.77;;;4.00;;
68074;SDS011;54864;52.002;5.468;2022-10-16T01:13:35;9.68;;;3.53;;
68074;SDS011;54864;52.002;5.468;2022-10-16T01:14:44;11.52;;;3.65;;
68074;SDS011;54864;52.002;5.468;2022-10-16T01:15:54;6.30;;;3.72;;
68074;SDS011;54864;52.002;5.468;2022-10-16T01:17:07;8.13;;;3.25;;
68074;SDS011;54864;52.002;5.468;2022-10-16T01:18:18;5.50;;;2.90;;
68074;SDS011;54864;52.002;5.468;2022-10-16T01:19:34;10.82;;;3.53;;
68074;SDS011;54864;52.002;5.468;2022-10-16T01:20:56;8.25;;;3.60;;
68074;SDS011;54864;52.002;5.468;2022-10-16T01:22:03;10.32;;;3.47;;
68074;SDS011;54864;52.002;5.468;2022-10-16T01:23:10;6.55;;;3.25;;
68074;SDS011;54864;52.002;5.468;2022-10-16T01:24:31;5.22;;;3.10;;
68074;SDS011;54864;52.002;5.468;2022-10-16T01:25:49;10.00;;;3.38;;
68074;SDS011;54864;52.002;5.468;2022-10-16T01:27:16;6.28;;;2.95;;
68074;SDS011;54864;52.002;5.468;2022-10-16T01:28:26;8.40;;;3.40;;
68074;SDS011;54864;52.002;5.468;2022-10-16T01:29:37;4.85;;;3.33;;
68074;SDS011;54864;52.002;5.468;2022-10-16T01:30:47;10.10;;;3.22;;
68074;SDS011;54864;52.002;5.468;2022-10-16T01:31:57;7.03;;;3.53;;
68074;SDS011;54864;52.002;5.468;2022-10-16T01:33:08;5.97;;;3.05;;
68074;SDS011;54864;52.002;5.468;2022-10-16T01:34:18;7.65;;;3.00;;
68074;SDS011;54864;52.002;5.468;2022-10-16T01:35:27;6.13;;;3.37;;
68074;SDS011;54864;52.002;5.468;2022-10-16T01:36:37;7.18;;;2.80;;
68074;SDS011;54864;52.002;5.468;2022-10-16T01:37:46;4.95;;;2.90;;
68074;SDS011;54864;52.002;5.468;2022-10-16T01:38:54;7.70;;;2.70;;
68074;SDS011;54864;52.002;5.468;2022-10-16T01:40:02;5.38;;;3.15;;
68074;SDS011;54864;52.002;5.468;2022-10-16T01:41:08;4.63;;;2.90;;
68074;SDS011;54864;52.002;5.468;2022-10-16T01:42:18;7.13;;;3.28;;
68074;SDS011;54864;52.002;5.468;2022-10-16T01:43:25;7.65;;;3.00;;
68074;SDS011;54864;52.002;5.468;2022-10-16T01:44:33;5.40;;;3.23;;
68074;SDS011;54864;52.002;5.468;2022-10-16T01:45:39;6.13;;;3.20;;
68074;SDS011;54864;52.002;5.468;2022-10-16T01:46:46;8.52;;;3.35;;
68074;SDS011;54864;52.002;5.468;2022-10-16T01:47:51;7.97;;;3.10;;
68074;SDS011;54864;52.002;5.468;2022-10-16T01:48:53;5.30;;;3.10;;
68074;SDS011;54864;52.002;5.468;2022-10-16T01:49:56;3.88;;;2.33;;
68074;SDS011;54864;52.002;5.468;2022-10-16T01:51:01;5.18;;;3.42;;
68074;SDS011;54864;52.002;5.468;2022-10-16T01:52:10;6.18;;;3.13;;
68074;SDS011;54864;52.002;5.468;2022-10-16T01:53:17;6.63;;;2.80;;
68074;SDS011;54864;52.002;5.468;2022-10-16T01:54:19;6.13;;;2.80;;
68074;SDS011;54864;52.002;5.468;2022-10-16T01:55:24;3.80;;;2.80;;
68074;SDS011;54864;52.002;5.468;2022-10-16T01:56:32;9.40;;;3.45;;
68074;SDS011;54864;52.002;5.468;2022-10-16T01:57:38;8.47;;;2.77;;
68074;SDS011;54864;52.002;5.468;2022-10-16T01:58:46;6.15;;;2.72;;
68074;SDS011;54864;52.002;5.468;2022-10-16T01:59:54;3.83;;;2.55;;
68074;SDS011;54864;52.002;5.468;2022-10-16T02:01:02;6.07;;;3.30;;
68074;SDS011;54864;52.002;5.468;2022-10-16T02:02:09;5.07;;;2.60;;
68074;SDS011;54864;52.002;5.468;2022-10-16T02:03:17;5.72;;;3.10;;
68074;SDS011;54864;52.002;5.468;2022-10-16T02:04:21;6.15;;;2.90;;
68074;SDS011;54864;52.002;5.468;2022-10-16T02:05:31;6.45;;;2.88;;
68074;SDS011;54864;52.002;5.468;2022-10-16T02:06:34;5.47;;;2.97;;
68074;SDS011;54864;52.002;5.468;2022-10-16T02:07:36;4.15;;;2.60;;
68074;SDS011;54864;52.002;5.468;2022-10-16T02:08:37;4.60;;;3.08;;
68074;SDS011;54864;52.002;5.468;2022-10-16T02:09:40;6.53;;;2.95;;
68074;SDS011;54864;52.002;5.468;2022-10-16T02:10:42;5.22;;;2.60;;
68074;SDS011;54864;52.002;5.468;2022-10-16T02:11:44;5.93;;;2.85;;
68074;SDS011;54864;52.002;5.468;2022-10-16T02:12:48;5.93;;;2.92;;
68074;SDS011;54864;52.002;5.468;2022-10-16T02:13:58;3.53;;;2.55;;
68074;SDS011;54864;52.002;5.468;2022-10-16T02:15:04;6.90;;;2.95;;
68074;SDS011;54864;52.002;5.468;2022-10-16T02:16:07;4.45;;;2.55;;
68074;SDS011;54864;52.002;5.468;2022-10-16T02:17:11;3.83;;;2.40;;
68074;SDS011;54864;52.002;5.468;2022-10-16T02:18:15;6.63;;;2.70;;
68074;SDS011;54864;52.002;5.468;2022-10-16T02:19:17;8.25;;;3.20;;
68074;SDS011;54864;52.002;5.468;2022-10-16T02:20:23;5.63;;;3.17;;
68074;SDS011;54864;52.002;5.468;2022-10-16T02:21:30;4.07;;;2.70;;
68074;SDS011;54864;52.002;5.468;2022-10-16T02:22:45;10.20;;;3.13;;
68074;SDS011;54864;52.002;5.468;2022-10-16T02:23:50;8.35;;;3.30;;
68074;SDS011;54864;52.002;5.468;2022-10-16T02:25:00;6.63;;;3.20;;
68074;SDS011;54864;52.002;5.468;2022-10-16T02:26:07;5.72;;;2.65;;
68074;SDS011;54864;52.002;5.468;2022-10-16T02:27:17;7.13;;;2.65;;
68074;SDS011;54864;52.002;5.468;2022-10-16T02:28:29;7.40;;;3.58;;
68074;SDS011;54864;52.002;5.468;2022-10-16T02:29:44;5.65;;;2.80;;
68074;SDS011;54864;52.002;5.468;2022-10-16T02:30:54;4.07;;;2.40;;
68074;SDS011;54864;52.002;5.468;2022-10-16T02:32:01;4.47;;;2.77;;
68074;SDS011;54864;52.002;5.468;2022-10-16T02:33:06;7.13;;;2.67;;
68074;SDS011;54864;52.002;5.468;2022-10-16T02:34:13;5.95;;;2.65;;
68074;SDS011;54864;52.002;5.468;2022-10-16T02:35:18;5.28;;;2.60;;
68074;SDS011;54864;52.002;5.468;2022-10-16T02:36:24;4.18;;;2.58;;
68074;SDS011;54864;52.002;5.468;2022-10-16T02:37:26;3.63;;;2.65;;
68074;SDS011;54864;52.002;5.468;2022-10-16T02:38:29;7.78;;;3.30;;
68074;SDS011;54864;52.002;5.468;2022-10-16T02:39:30;6.85;;;2.40;;
68074;SDS011;54864;52.002;5.468;2022-10-16T02:40:33;7.10;;;2.58;;
68074;SDS011;54864;52.002;5.468;2022-10-16T02:41:35;4.90;;;2.63;;
68074;SDS011;54864;52.002;5.468;2022-10-16T02:42:38;6.93;;;2.55;;
68074;SDS011;54864;52.002;5.468;2022-10-16T02:43:42;7.30;;;3.25;;
68074;SDS011;54864;52.002;5.468;2022-10-16T02:44:43;5.93;;;3.05;;
68074;SDS011;54864;52.002;5.468;2022-10-16T02:45:44;4.53;;;2.60;;
68074;SDS011;54864;52.002;5.468;2022-10-16T02:46:46;5.40;;;2.97;;
68074;SDS011;54864;52.002;5.468;2022-10-16T02:47:47;6.13;;;2.63;;
68074;SDS011;54864;52.002;5.468;2022-10-16T02:48:49;7.13;;;2.58;;
68074;SDS011;54864;52.002;5.468;2022-10-16T02:49:49;7.82;;;2.97;;
68074;SDS011;54864;52.002;5.468;2022-10-16T02:50:51;6.60;;;2.60;;
68074;SDS011;54864;52.002;5.468;2022-10-16T02:51:52;3.50;;;2.58;;
68074;SDS011;54864;52.002;5.468;2022-10-16T02:52:54;6.45;;;2.63;;
68074;SDS011;54864;52.002;5.468;2022-10-16T02:53:54;4.85;;;2.80;;
68074;SDS011;54864;52.002;5.468;2022-10-16T02:54:56;6.78;;;2.40;;
68074;SDS011;54864;52.002;5.468;2022-10-16T02:55:57;5.63;;;2.72;;
68074;SDS011;54864;52.002;5.468;2022-10-16T02:56:59;5.47;;;2.80;;
68074;SDS011;54864;52.002;5.468;2022-10-16T02:57:59;6.95;;;2.65;;
68074;SDS011;54864;52.002;5.468;2022-10-16T02:59:03;6.30;;;2.67;;
68074;SDS011;54864;52.002;5.468;2022-10-16T03:00:04;5.45;;;2.75;;
68074;SDS011;54864;52.002;5.468;2022-10-16T03:01:07;4.15;;;2.70;;
68074;SDS011;54864;52.002;5.468;2022-10-16T03:02:08;4.07;;;2.60;;
68074;SDS011;54864;52.002;5.468;2022-10-16T03:03:10;6.85;;;2.50;;
68074;SDS011;54864;52.002;5.468;2022-10-16T03:04:11;4.00;;;2.67;;
68074;SDS011;54864;52.002;5.468;2022-10-16T03:05:13;10.68;;;2.97;;
68074;SDS011;54864;52.002;5.468;2022-10-16T03:06:15;4.20;;;2.80;;
68074;SDS011;54864;52.002;5.468;2022-10-16T03:07:17;7.67;;;2.63;;
68074;SDS011;54864;52.002;5.468;2022-10-16T03:08:17;3.43;;;2.30;;
68074;SDS011;54864;52.002;5.468;2022-10-16T03:09:23;4.97;;;2.95;;
68074;SDS011;54864;52.002;5.468;2022-10-16T03:10:24;5.70;;;2.90;;
68074;SDS011;54864;52.002;5.468;2022-10-16T03:11:26;5.28;;;2.65;;
68074;SDS011;54864;52.002;5.468;2022-10-16T03:12:26;4.63;;;2.60;;
68074;SDS011;54864;52.002;5.468;2022-10-16T03:13:28;4.72;;;2.65;;
68074;SDS011;54864;52.002;5.468;2022-10-16T03:14:30;3.63;;;2.90;;
68074;SDS011;54864;52.002;5.468;2022-10-16T03:15:32;4.30;;;2.95;;
68074;SDS011;54864;52.002;5.468;2022-10-16T03:16:33;8.15;;;3.00;;
68074;SDS011;54864;52.002;5.468;2022-10-16T03:17:35;6.95;;;2.58;;
68074;SDS011;54864;52.002;5.468;2022-10-16T03:18:36;5.75;;;3.00;;
68074;SDS011;54864;52.002;5.468;2022-10-16T03:19:38;3.80;;;2.70;;
68074;SDS011;54864;52.002;5.468;2022-10-16T03:20:39;5.32;;;2.55;;
68074;SDS011;54864;52.002;5.468;2022-10-16T03:21:41;4.57;;;2.70;;
68074;SDS011;54864;52.002;5.468;2022-10-16T03:22:42;4.97;;;2.70;;
68074;SDS011;54864;52.002;5.468;2022-10-16T03:23:43;6.25;;;2.78;;
68074;SDS011;54864;52.002;5.468;2022-10-16T03:24:44;4.80;;;2.10;;
68074;SDS011;54864;52.002;5.468;2022-10-16T03:25:46;3.23;;;2.40;;
68074;SDS011;54864;52.002;5.468;2022-10-16T03:26:47;4.60;;;2.13;;
68074;SDS011;54864;52.002;5.468;2022-10-16T03:27:48;4.90;;;2.67;;
68074;SDS011;54864;52.002;5.468;2022-10-16T03:28:49;4.18;;;2.28;;
68074;SDS011;54864;52.002;5.468;2022-10-16T03:29:52;5.18;;;2.50;;
68074;SDS011;54864;52.002;5.468;2022-10-16T03:30:53;5.07;;;2.53;;
68074;SDS011;54864;52.002;5.468;2022-10-16T03:31:55;3.57;;;2.37;;
68074;SDS011;54864;52.002;5.468;2022-10-16T03:32:56;5.22;;;2.47;;
68074;SDS011;54864;52.002;5.468;2022-10-16T03:33:58;5.10;;;2.38;;
68074;SDS011;54864;52.002;5.468;2022-10-16T03:34:59;4.50;;;2.53;;
68074;SDS011;54864;52.002;5.468;2022-10-16T03:36:01;6.73;;;2.60;;
68074;SDS011;54864;52.002;5.468;2022-10-16T03:37:02;6.77;;;2.83;;
68074;SDS011;54864;52.002;5.468;2022-10-16T03:38:04;5.87;;;2.50;;
68074;SDS011;54864;52.002;5.468;2022-10-16T03:39:05;5.50;;;2.50;;
68074;SDS011;54864;52.002;5.468;2022-10-16T03:40:07;4.00;;;2.28;;
68074;SDS011;54864;52.002;5.468;2022-10-16T03:41:08;4.30;;;2.33;;
68074;SDS011;54864;52.002;5.468;2022-10-16T03:42:10;4.50;;;2.55;;
68074;SDS011;54864;52.002;5.468;2022-10-16T03:43:11;4.95;;;2.42;;
68074;SDS011;54864;52.002;5.468;2022-10-16T03:44:13;4.85;;;2.53;;
68074;SDS011;54864;52.002;5.468;2022-10-16T03:45:15;3.20;;;2.17;;
68074;SDS011;54864;52.002;5.468;2022-10-16T03:46:17;5.20;;;2.30;;
68074;SDS011;54864;52.002;5.468;2022-10-16T03:47:18;4.03;;;2.47;;
68074;SDS011;54864;52.002;5.468;2022-10-16T03:48:21;4.03;;;2.15;;
68074;SDS011;54864;52.002;5.468;2022-10-16T03:49:23;7.82;;;2.25;;
68074;SDS011;54864;52.002;5.468;2022-10-16T03:50:24;3.45;;;2.10;;
68074;SDS011;54864;52.002;5.468;2022-10-16T03:51:26;4.03;;;2.25;;
68074;SDS011;54864;52.002;5.468;2022-10-16T03:52:26;3.85;;;2.13;;
68074;SDS011;54864;52.002;5.468;2022-10-16T03:53:28;4.88;;;2.33;;
68074;SDS011;54864;52.002;5.468;2022-10-16T03:54:29;6.70;;;2.20;;
68074;SDS011;54864;52.002;5.468;2022-10-16T03:55:31;6.45;;;2.63;;
68074;SDS011;54864;52.002;5.468;2022-10-16T03:56:31;4.00;;;2.28;;
68074;SDS011;54864;52.002;5.468;2022-10-16T03:57:33;3.50;;;2.42;;
68074;SDS011;54864;52.002;5.468;2022-10-16T03:58:34;3.22;;;2.30;;
68074;SDS011;54864;52.002;5.468;2022-10-16T03:59:36;5.03;;;2.60;;
68074;SDS011;54864;52.002;5.468;2022-10-16T04:00:40;4.13;;;2.00;;
68074;SDS011;54864;52.002;5.468;2022-10-16T04:01:42;5.20;;;2.17;;
68074;SDS011;54864;52.002;5.468;2022-10-16T04:02:43;5.22;;;2.15;;
68074;SDS011;54864;52.002;5.468;2022-10-16T04:03:45;3.22;;;1.70;;
68074;SDS011;54864;52.002;5.468;2022-10-16T04:04:46;9.95;;;2.35;;
68074;SDS011;54864;52.002;5.468;2022-10-16T04:05:47;4.70;;;2.30;;
68074;SDS011;54864;52.002;5.468;2022-10-16T04:06:50;5.72;;;2.15;;
68074;SDS011;54864;52.002;5.468;2022-10-16T04:07:52;3.38;;;2.00;;
68074;SDS011;54864;52.002;5.468;2022-10-16T04:08:55;4.13;;;1.95;;
68074;SDS011;54864;52.002;5.468;2022-10-16T04:09:56;4.43;;;1.90;;
68074;SDS011;54864;52.002;5.468;2022-10-16T04:10:58;4.80;;;2.30;;
68074;SDS011;54864;52.002;5.468;2022-10-16T04:11:59;3.58;;;2.13;;
68074;SDS011;54864;52.002;5.468;2022-10-16T04:13:01;4.90;;;2.42;;
68074;SDS011;54864;52.002;5.468;2022-10-16T04:14:02;2.88;;;2.20;;
68074;SDS011;54864;52.002;5.468;2022-10-16T04:15:04;6.85;;;2.13;;
68074;SDS011;54864;52.002;5.468;2022-10-16T04:16:07;2.75;;;1.83;;
68074;SDS011;54864;52.002;5.468;2022-10-16T04:17:08;3.72;;;2.17;;
68074;SDS011;54864;52.002;5.468;2022-10-16T04:18:09;3.95;;;2.00;;
68074;SDS011;54864;52.002;5.468;2022-10-16T04:19:11;5.15;;;2.10;;
68074;SDS011;54864;52.002;5.468;2022-10-16T04:20:12;4.32;;;1.85;;
68074;SDS011;54864;52.002;5.468;2022-10-16T04:21:14;5.05;;;1.98;;
68074;SDS011;54864;52.002;5.468;2022-10-16T04:22:15;2.33;;;2.00;;
68074;SDS011;54864;52.002;5.468;2022-10-16T04:23:16;6.43;;;2.87;;
68074;SDS011;54864;52.002;5.468;2022-10-16T04:24:17;5.10;;;2.20;;
68074;SDS011;54864;52.002;5.468;2022-10-16T04:25:19;4.00;;;2.20;;
68074;SDS011;54864;52.002;5.468;2022-10-16T04:26:20;5.55;;;2.10;;
68074;SDS011;54864;52.002;5.468;2022-10-16T04:27:21;2.80;;;1.83;;
68074;SDS011;54864;52.002;5.468;2022-10-16T04:28:22;6.57;;;2.20;;
68074;SDS011;54864;52.002;5.468;2022-10-16T04:29:24;2.63;;;1.80;;
68074;SDS011;54864;52.002;5.468;2022-10-16T04:30:25;4.97;;;2.50;;
68074;SDS011;54864;52.002;5.468;2022-10-16T04:31:28;4.70;;;2.33;;
68074;SDS011;54864;52.002;5.468;2022-10-16T04:32:29;4.30;;;1.92;;
68074;SDS011;54864;52.002;5.468;2022-10-16T04:33:30;4.43;;;2.00;;
68074;SDS011;54864;52.002;5.468;2022-10-16T04:34:31;5.17;;;1.90;;
68074;SDS011;54864;52.002;5.468;2022-10-16T04:35:33;4.68;;;2.10;;
68074;SDS011;54864;52.002;5.468;2022-10-16T04:36:34;5.28;;;1.98;;
68074;SDS011;54864;52.002;5.468;2022-10-16T04:37:35;4.75;;;2.03;;
68074;SDS011;54864;52.002;5.468;2022-10-16T04:38:36;3.83;;;2.03;;
68074;SDS011;54864;52.002;5.468;2022-10-16T04:39:39;4.90;;;2.20;;
68074;SDS011;54864;52.002;5.468;2022-10-16T04:40:41;4.03;;;1.83;;
68074;SDS011;54864;52.002;5.468;2022-10-16T04:41:43;5.38;;;2.08;;
68074;SDS011;54864;52.002;5.468;2022-10-16T04:42:44;6.15;;;2.22;;
68074;SDS011;54864;52.002;5.468;2022-10-16T04:43:46;3.70;;;2.05;;
68074;SDS011;54864;52.002;5.468;2022-10-16T04:44:46;4.05;;;1.98;;
68074;SDS011;54864;52.002;5.468;2022-10-16T04:45:48;2.63;;;1.92;;
68074;SDS011;54864;52.002;5.468;2022-10-16T04:46:52;3.92;;;1.95;;
68074;SDS011;54864;52.002;5.468;2022-10-16T04:47:56;4.25;;;2.00;;
68074;SDS011;54864;52.002;5.468;2022-10-16T04:48:57;5.32;;;1.90;;
68074;SDS011;54864;52.002;5.468;2022-10-16T04:49:59;3.78;;;2.20;;
68074;SDS011;54864;52.002;5.468;2022-10-16T04:51:02;5.70;;;1.90;;
68074;SDS011;54864;52.002;5.468;2022-10-16T04:52:04;3.63;;;1.90;;
68074;SDS011;54864;52.002;5.468;2022-10-16T04:53:05;3.63;;;1.80;;
68074;SDS011;54864;52.002;5.468;2022-10-16T04:54:08;3.33;;;1.88;;
68074;SDS011;54864;52.002;5.468;2022-10-16T04:55:09;8.43;;;2.17;;
68074;SDS011;54864;52.002;5.468;2022-10-16T04:56:11;4.82;;;2.15;;
68074;SDS011;54864;52.002;5.468;2022-10-16T04:57:12;3.72;;;1.83;;
68074;SDS011;54864;52.002;5.468;2022-10-16T04:58:14;4.28;;;2.30;;
68074;SDS011;54864;52.002;5.468;2022-10-16T04:59:15;6.22;;;2.10;;
68074;SDS011;54864;52.002;5.468;2022-10-16T05:00:17;6.80;;;2.20;;
68074;SDS011;54864;52.002;5.468;2022-10-16T05:01:18;4.47;;;2.17;;
68074;SDS011;54864;52.002;5.468;2022-10-16T05:02:21;2.55;;;1.95;;
68074;SDS011;54864;52.002;5.468;2022-10-16T05:03:22;7.78;;;2.20;;
68074;SDS011;54864;52.002;5.468;2022-10-16T05:04:24;4.95;;;2.58;;
68074;SDS011;54864;52.002;5.468;2022-10-16T05:05:25;5.35;;;2.30;;
68074;SDS011;54864;52.002;5.468;2022-10-16T05:06:26;5.88;;;2.15;;
68074;SDS011;54864;52.002;5.468;2022-10-16T05:07:27;3.53;;;2.10;;
68074;SDS011;54864;52.002;5.468;2022-10-16T05:08:29;4.97;;;2.30;;
68074;SDS011;54864;52.002;5.468;2022-10-16T05:09:30;4.73;;;2.77;;
68074;SDS011;54864;52.002;5.468;2022-10-16T05:10:32;4.93;;;2.50;;
68074;SDS011;54864;52.002;5.468;2022-10-16T05:11:33;6.28;;;2.60;;
68074;SDS011;54864;52.002;5.468;2022-10-16T05:12:35;6.13;;;2.37;;
68074;SDS011;54864;52.002;5.468;2022-10-16T05:13:36;3.27;;;2.43;;
68074;SDS011;54864;52.002;5.468;2022-10-16T05:14:38;4.43;;;2.10;;
68074;SDS011;54864;52.002;5.468;2022-10-16T05:15:39;6.20;;;2.60;;
68074;SDS011;54864;52.002;5.468;2022-10-16T05:16:40;5.78;;;2.40;;
68074;SDS011;54864;52.002;5.468;2022-10-16T05:17:43;3.95;;;2.13;;
68074;SDS011;54864;52.002;5.468;2022-10-16T05:18:45;5.57;;;2.45;;
68074;SDS011;54864;52.002;5.468;2022-10-16T05:19:46;6.53;;;2.72;;
68074;SDS011;54864;52.002;5.468;2022-10-16T05:20:47;6.85;;;2.35;;
68074;SDS011;54864;52.002;5.468;2022-10-16T05:21:48;5.27;;;2.57;;
68074;SDS011;54864;52.002;5.468;2022-10-16T05:22:50;7.13;;;2.38;;
68074;SDS011;54864;52.002;5.468;2022-10-16T05:23:52;4.40;;;2.28;;
68074;SDS011;54864;52.002;5.468;2022-10-16T05:24:54;5.93;;;2.30;;
68074;SDS011;54864;52.002;5.468;2022-10-16T05:25:55;5.47;;;2.87;;
68074;SDS011;54864;52.002;5.468;2022-10-16T05:26:59;10.43;;;2.70;;
68074;SDS011;54864;52.002;5.468;2022-10-16T05:28:00;3.53;;;2.30;;
68074;SDS011;54864;52.002;5.468;2022-10-16T05:29:02;7.05;;;2.60;;
68074;SDS011;54864;52.002;5.468;2022-10-16T05:30:04;5.30;;;2.58;;
68074;SDS011;54864;52.002;5.468;2022-10-16T05:31:08;5.05;;;2.53;;
68074;SDS011;54864;52.002;5.468;2022-10-16T05:32:10;6.85;;;3.00;;
68074;SDS011;54864;52.002;5.468;2022-10-16T05:33:13;4.55;;;2.60;;
68074;SDS011;54864;52.002;5.468;2022-10-16T05:34:14;5.55;;;2.60;;
68074;SDS011;54864;52.002;5.468;2022-10-16T05:35:16;4.57;;;2.50;;
68074;SDS011;54864;52.002;5.468;2022-10-16T05:36:18;5.07;;;2.20;;
68074;SDS011;54864;52.002;5.468;2022-10-16T05:37:20;5.82;;;2.78;;
68074;SDS011;54864;52.002;5.468;2022-10-16T05:38:21;4.90;;;2.90;;
68074;SDS011;54864;52.002;5.468;2022-10-16T05:39:23;5.07;;;2.20;;
68074;SDS011;54864;52.002;5.468;2022-10-16T05:40:23;7.15;;;2.33;;
68074;SDS011;54864;52.002;5.468;2022-10-16T05:41:25;6.47;;;2.28;;
68074;SDS011;54864;52.002;5.468;2022-10-16T05:42:26;5.45;;;2.45;;
68074;SDS011;54864;52.002;5.468;2022-10-16T05:43:28;6.88;;;2.40;;
68074;SDS011;54864;52.002;5.468;2022-10-16T05:44:30;6.55;;;2.30;;
68074;SDS011;54864;52.002;5.468;2022-10-16T05:45:32;4.97;;;2.60;;
68074;SDS011;54864;52.002;5.468;2022-10-16T05:46:33;9.30;;;2.37;;
68074;SDS011;54864;52.002;5.468;2022-10-16T05:47:35;8.48;;;2.60;;
68074;SDS011;54864;52.002;5.468;2022-10-16T05:48:37;6.47;;;2.67;;
68074;SDS011;54864;52.002;5.468;2022-10-16T05:49:39;4.72;;;2.70;;
68074;SDS011;54864;52.002;5.468;2022-10-16T05:50:40;6.43;;;2.60;;
68074;SDS011;54864;52.002;5.468;2022-10-16T05:51:42;6.85;;;2.60;;
68074;SDS011;54864;52.002;5.468;2022-10-16T05:52:42;4.80;;;2.78;;
68074;SDS011;54864;52.002;5.468;2022-10-16T05:53:44;4.88;;;2.55;;
68074;SDS011;54864;52.002;5.468;2022-10-16T05:54:45;6.27;;;2.70;;
68074;SDS011;54864;52.002;5.468;2022-10-16T05:55:51;6.80;;;2.55;;
68074;SDS011;54864;52.002;5.468;2022-10-16T05:56:53;6.97;;;2.58;;
68074;SDS011;54864;52.002;5.468;2022-10-16T05:57:54;5.20;;;2.50;;
68074;SDS011;54864;52.002;5.468;2022-10-16T05:58:55;4.43;;;2.50;;
68074;SDS011;54864;52.002;5.468;2022-10-16T05:59:57;4.80;;;2.47;;
68074;SDS011;54864;52.002;5.468;2022-10-16T06:00:59;4.47;;;2.28;;
68074;SDS011;54864;52.002;5.468;2022-10-16T06:02:03;4.05;;;2.45;;
68074;SDS011;54864;52.002;5.468;2022-10-16T06:03:05;4.80;;;2.70;;
68074;SDS011;54864;52.002;5.468;2022-10-16T06:04:08;7.38;;;2.70;;
68074;SDS011;54864;52.002;5.468;2022-10-16T06:05:10;4.82;;;2.60;;
68074;SDS011;54864;52.002;5.468;2022-10-16T06:06:12;4.68;;;2.50;;
68074;SDS011;54864;52.002;5.468;2022-10-16T06:07:16;6.13;;;2.92;;
68074;SDS011;54864;52.002;5.468;2022-10-16T06:08:16;6.15;;;2.80;;
68074;SDS011;54864;52.002;5.468;2022-10-16T06:09:18;8.90;;;2.92;;
68074;SDS011;54864;52.002;5.468;2022-10-16T06:10:19;5.75;;;3.08;;
68074;SDS011;54864;52.002;5.468;2022-10-16T06:11:22;4.47;;;2.47;;
68074;SDS011;54864;52.002;5.468;2022-10-16T06:12:28;7.93;;;3.20;;
68074;SDS011;54864;52.002;5.468;2022-10-16T06:13:30;5.80;;;2.45;;
68074;SDS011;54864;52.002;5.468;2022-10-16T06:14:31;6.80;;;3.08;;
68074;SDS011;54864;52.002;5.468;2022-10-16T06:15:33;6.13;;;2.88;;
68074;SDS011;54864;52.002;5.468;2022-10-16T06:16:33;7.05;;;2.83;;
68074;SDS011;54864;52.002;5.468;2022-10-16T06:17:36;12.02;;;2.92;;
68074;SDS011;54864;52.002;5.468;2022-10-16T06:18:37;7.00;;;2.73;;
68074;SDS011;54864;52.002;5.468;2022-10-16T06:19:41;5.13;;;2.90;;
68074;SDS011;54864;52.002;5.468;2022-10-16T06:20:42;8.07;;;2.88;;
68074;SDS011;54864;52.002;5.468;2022-10-16T06:21:43;5.25;;;2.60;;